CYBB/YBB METAR and TAF weather

Enter ICAO airport designator
Station Type Date Time Source
CYBB METAR 2021/03/02 00:00 UTC NOAA

CYBB 020000Z 25006KT 5SM IC HZ SKC M42/M46 A2990 RMK LAST STFD OBS/NXT/021300Z SLP129


Station Type Date Time Source
CYBB Decoded METAR 2021/03/02 00:00 UTC NOAA

Pelly Bay Airport, Canada (CYBB) 68-32N 089-49W
Mar 01, 2021 - 07:00 PM EST / 2021.03.02 0000 UTC
Wind: from the WSW (250 degrees) at 7 MPH (6 KT):0
Visibility: 5 mile(s):0
Sky conditions: clear
Weather: ice crystals; haze
Temperature: -43 F (-42 C)
Windchill: -65 F (-54 C):2
Dew Point: -50 F (-46 C)
Relative Humidity: 64%
Pressure (altimeter): 29.9 in. Hg (1012 hPa)
ob: CYBB 020000Z 25006KT 5SM IC HZ SKC M42/M46 A2990 RMK LAST STFD OBS/NXT/021300Z SLP129
cycle: 0

Station Type Date Time Source
CYBB TAF 2021/03/01 19:00 UTC NOAA

TAF CYBB 011839Z 0119/0124 VRB03KT P6SM SKC
TEMPO 0119/0124 5SM IC HZ
RMK NXT FCST WILL BE ISSUED AT 021445Z

Example: see airport list